AXN weather

Chandler Field
Alexandria, Minnesota, United States

Public forecast

Using degrees Fahrenheit for public forecast. Weather courtesy of forecast.io.

METAR (pilot weather report)

Retrieved 2019/04/21 06:53 UTC (50 minutes ago):

KAXN 210653Z AUTO 06012KT 10SM CLR 13/05 A2973 RMK AO2 SLP066 T01330050 $

TAF (pilot weather forecast)

Retrieved 2019/04/21 06:22 UTC (1 hour ago):

TAF KAXN 210520Z 2106/2206 06013KT P6SM BKN120 FM211500 06014G22KT P6SM SCT040 BKN200 FM212000 05015G27KT P6SM OVC015